Aérodrome :
LOGIN :

S'inscrire | Disclaimer

   EN    FR    IT 

 










Légende :    VFR   VFR Marginal   IFR   IFR Intensif   IFR Très Intensif
Visi : 
Plafond : 
>= 8 km
>= 3000ft
5 à 8 km
1000 à 3000 ft
1500m à 5 km
500 à 1000 ft
800 à 1500m
200 à 500 ft
< 800m
< 200 ft
Symboles :   Orages  Brouillard  Fortes neiges  Fortes précipitations  Vent > 20 kt
SIGMETs :   Divers  Orages  Givrage  Turbulence  Onde Orograph.  Cendres Volcan.






- Altitude de l'aérodrome : 51 ft
- Code IATA : GWT


EDXW - Westerland-Sylt Island

DERNIER METAR :
  • 201420Z 36011KT CAVOK 20/13 Q1012

METARs EXPIRÉS :
  • 201350Z 36013KT CAVOK 19/11 Q1012
  • 201320Z 36012KT CAVOK 18/12 Q1013
  • 201250Z 35011KT CAVOK 20/11 Q1013
  • 201220Z 34010KT CAVOK 22/12 Q1013
  • 201150Z 34010KT CAVOK 22/12 Q1013
  • 201120Z 02006KT 350V060 CAVOK 22/11 Q1013
  • 201050Z 02007KT 350V060 CAVOK 22/12 Q1013
  • 201020Z 05006KT 010V090 CAVOK 21/12 Q1013
  • 200950Z 05006KT 010V080 CAVOK 21/12 Q1013

TAF TAF EDXW
Valide du 20 à 15h jusqu'au 20 à 21h UTC


201400Z 2015/2021 36011KT CAVOK
BECMG 2015/2017 07013KT



MET'MAP, la Météo Aéronautique d'un coup d'oeil ! - Copyright ORBIFLY Décembre 2007 - Disclaimer

ORBIFLY MET'MAP TEAM :

Programmation & Développement : Alexandra Zaïnal
Sur une idée originale de : Baudouin d'Aumeries
Soutien technique & logistique : Manuel Goepfert
Assistance : Marc-Olivier Méhu




SOURCES & CREDITS :

   NOAA